.
WxDataArchive / Data Records for 2008-09-24
2008-09-23 September 2008 2008-09-25

Data Records for Wednesday, 24 September 2008

Time	Temp	Chill	HIndex	Humid	Dewpt	 Wind 	HiWind	WindDir	Rain 	Barom 
-----	----	-----	------	-----	-----	------	------	-------	-----	----- 
00:00	58.9	58.9	58.9	86	54.7	0	0	---	0.00	30.277 
00:05	58.6	58.6	58.6	86	54.4	0	0	---	0.00	30.275 
00:10	58.3	58.3	58.3	87	54.4	0	0	---	0.00	30.277 
00:15	58.1	58.1	58.1	87	54.2	0	0	---	0.00	30.278 
00:20	57.8	57.8	57.8	87	54.0	0	0	---	0.00	30.276 
00:25	57.5	57.5	57.5	88	54.0	0	0	---	0.00	30.275 
00:30	57.3	57.3	57.3	88	53.8	0	0	---	0.00	30.275 
00:35	57.0	57.0	57.0	88	53.5	0	0	---	0.00	30.275 
00:40	56.9	56.9	56.9	89	53.7	0	0	---	0.00	30.277 
00:45	56.6	56.6	56.6	89	53.4	0	0	---	0.00	30.281 
00:50	56.3	56.3	56.3	89	53.1	0	0	---	0.00	30.280 
00:55	56.2	56.2	56.2	90	53.3	0	0	---	0.00	30.278 
01:00	56.2	56.2	56.2	91	53.6	0	0	---	0.00	30.277 
01:05	56.2	56.2	56.2	91	53.6	0	0	---	0.00	30.276 
01:10	56.0	56.0	56.0	92	53.7	0	0	---	0.00	30.280 
01:15	55.9	55.9	55.9	92	53.6	0	0	---	0.00	30.282 
01:20	55.7	55.7	55.7	92	53.4	0	0	---	0.00	30.281 
01:25	55.6	55.6	55.6	92	53.3	0	0	---	0.00	30.282 
01:30	55.4	55.4	55.4	92	53.1	0	0	---	0.00	30.280 
01:35	55.4	55.4	55.4	92	53.1	0	0	---	0.00	30.279 
01:40	55.3	55.3	55.3	93	53.3	0	0	---	0.00	30.278 
01:45	55.1	55.1	55.1	93	53.1	0	0	---	0.00	30.275 
01:50	55.0	55.0	55.0	93	53.0	0	0	---	0.00	30.275 
01:55	54.8	54.8	54.8	93	52.8	0	0	---	0.00	30.274 
02:00	54.8	54.8	54.8	93	52.8	0	0	---	0.00	30.273 
02:05	54.7	54.7	54.7	93	52.7	0	0	---	0.00	30.272 
02:10	54.7	54.7	54.7	93	52.7	0	0	---	0.00	30.272 
02:15	54.7	54.7	54.7	93	52.7	0	0	---	0.00	30.271 
02:20	54.7	54.7	54.7	94	53.0	0	0	---	0.00	30.272 
02:25	54.5	54.5	54.5	94	52.8	0	0	---	0.00	30.273 
02:30	54.5	54.5	54.5	94	52.8	0	0	---	0.00	30.273 
02:35	54.5	54.5	54.5	94	52.8	0	0	---	0.00	30.273 
02:40	54.5	54.5	54.5	94	52.8	0	0	---	0.00	30.273 
02:45	54.4	54.4	54.4	94	52.7	0	0	---	0.00	30.273 
02:50	54.2	54.2	54.2	94	52.5	0	0	---	0.00	30.273 
02:55	54.1	54.1	54.1	94	52.4	0	0	---	0.00	30.272 
03:00	54.1	54.1	54.1	94	52.4	0	0	---	0.00	30.272 
03:05	53.9	53.9	53.9	94	52.2	0	0	---	0.00	30.272 
03:10	53.9	53.9	53.9	94	52.2	0	0	---	0.00	30.272 
03:15	53.8	53.8	53.8	94	52.1	0	0	---	0.00	30.271 
03:20	53.6	53.6	53.6	94	51.9	0	0	---	0.00	30.271 
03:25	53.5	53.5	53.5	94	51.8	0	0	---	0.00	30.268 
03:30	53.5	53.5	53.5	94	51.8	0	0	---	0.00	30.265 
03:35	53.5	53.5	53.5	94	51.8	0	0	---	0.00	30.262 
03:40	53.5	53.5	53.5	94	51.8	0	0	---	0.00	30.261 
03:45	53.5	53.5	53.5	94	51.8	0	0	---	0.00	30.260 
03:50	53.5	53.5	53.5	94	51.8	0	0	---	0.00	30.260 
03:55	53.5	53.5	53.5	94	51.8	0	0	---	0.00	30.260 
04:00	53.5	53.5	53.5	95	52.1	0	0	---	0.00	30.263 
04:05	53.6	53.6	53.6	95	52.2	0	1	90	0.00	30.263 
04:10	53.8	53.8	53.8	95	52.4	0	0	---	0.00	30.262 
04:15	53.8	53.8	53.8	94	52.1	0	0	---	0.00	30.263 
04:20	53.6	53.6	53.6	94	51.9	0	0	---	0.00	30.264 
04:25	53.5	53.5	53.5	94	51.8	0	0	---	0.00	30.265 
04:30	53.3	53.3	53.3	94	51.6	0	0	---	0.00	30.266 
04:35	53.2	53.2	53.2	94	51.5	0	0	---	0.00	30.267 
04:40	53.1	53.1	53.1	94	51.4	0	0	---	0.00	30.265 
04:45	52.9	52.9	52.9	94	51.2	0	0	---	0.00	30.264 
04:50	52.8	52.8	52.8	94	51.1	0	0	---	0.00	30.262 
04:55	52.6	52.6	52.6	94	50.9	0	0	---	0.00	30.261 
05:00	52.5	52.5	52.5	94	50.8	0	0	---	0.00	30.262 
05:05	52.5	52.5	52.5	94	50.8	0	0	---	0.00	30.265 
05:10	52.3	52.3	52.3	94	50.6	0	0	---	0.00	30.264 
05:15	52.2	52.2	52.2	94	50.5	0	0	---	0.00	30.263 
05:20	52.0	52.0	52.0	94	50.3	0	0	---	0.00	30.262 
05:25	51.9	51.9	51.9	94	50.2	0	0	---	0.00	30.260 
05:30	51.9	51.9	51.9	94	50.2	0	0	---	0.00	30.261 
05:35	51.9	51.9	51.9	94	50.2	0	0	---	0.00	30.261 
05:40	51.7	51.7	51.7	94	50.0	0	0	---	0.00	30.262 
05:45	51.6	51.6	51.6	94	49.9	0	0	---	0.00	30.263 
05:50	51.6	51.6	51.6	94	49.9	0	0	---	0.00	30.263 
05:55	51.4	51.4	51.4	94	49.7	0	0	---	0.00	30.265 
06:00	51.3	51.3	51.3	94	49.6	0	0	---	0.00	30.266 
06:05	51.3	51.3	51.3	95	49.9	0	0	---	0.00	30.271 
06:10	51.3	51.3	51.3	95	49.9	0	0	---	0.00	30.271 
06:15	51.1	51.1	51.1	95	49.7	0	0	---	0.00	30.271 
06:20	51.3	51.3	51.3	95	49.9	0	0	---	0.00	30.273 
06:25	51.3	51.3	51.3	95	49.9	0	0	---	0.00	30.276 
06:30	51.1	51.1	51.1	95	49.7	0	0	---	0.00	30.276 
06:35	51.1	51.1	51.1	95	49.7	0	0	---	0.00	30.279 
06:40	51.1	51.1	51.1	95	49.7	0	0	---	0.00	30.283 
06:45	51.0	51.0	51.0	95	49.6	0	0	---	0.00	30.285 
06:50	51.0	51.0	51.0	95	49.6	0	0	---	0.00	30.285 
06:55	51.0	51.0	51.0	95	49.6	0	0	---	0.00	30.285 
07:00	51.1	51.1	51.1	95	49.7	0	1	90	0.00	30.287 
07:05	51.1	51.1	51.1	95	49.7	0	0	---	0.00	30.289 
07:10	51.4	51.4	51.4	95	50.0	0	0	---	0.00	30.290 
07:15	52.0	52.0	52.0	96	50.9	0	0	---	0.00	30.294 
07:20	52.6	52.6	52.6	96	51.5	0	0	---	0.00	30.296 
07:25	53.2	53.2	53.2	96	52.1	0	1	90	0.00	30.296 
07:30	53.5	53.5	53.5	96	52.4	0	1	90	0.00	30.296 
07:35	53.8	53.8	53.8	95	52.4	0	1	90	0.00	30.297 
07:40	54.1	54.1	54.1	95	52.7	0	1	90	0.00	30.297 
07:45	54.5	54.5	54.5	94	52.8	0	1	90	0.00	30.295 
07:50	55.0	55.0	55.0	92	52.7	0	1	90	0.00	30.295 
07:55	55.4	55.4	55.4	91	52.8	0	1	90	0.00	30.297 
08:00	56.0	56.0	56.0	90	53.1	0	0	---	0.00	30.295 
08:05	56.3	56.3	56.3	90	53.4	0	1	90	0.00	30.299 
08:10	56.7	56.7	56.7	88	53.2	0	1	90	0.00	30.300 
08:15	57.2	57.2	57.2	87	53.4	0	0	---	0.00	30.300 
08:20	57.6	57.6	57.6	85	53.1	0	0	---	0.00	30.300 
08:25	58.1	58.1	58.1	83	53.0	0	1	90	0.00	30.302 
08:30	58.6	58.6	58.6	82	53.1	0	2	90	0.00	30.302 
08:35	59.0	59.0	59.0	81	53.2	0	1	90	0.00	30.302 
08:40	59.6	59.6	59.6	80	53.4	0	1	90	0.00	30.302 
08:45	60.1	60.1	60.1	78	53.2	0	1	90	0.00	30.301 
08:50	60.5	60.5	60.5	79	54.0	0	1	90	0.00	30.301 
08:55	61.2	61.2	61.2	77	53.9	0	1	90	0.00	30.302 
09:00	61.8	61.8	61.8	75	53.8	0	1	90	0.00	30.300 
09:05	62.3	62.3	62.3	73	53.5	0	1	90	0.00	30.305 
09:10	62.9	62.9	62.9	72	53.7	0	3	45	0.00	30.305 
09:15	63.5	63.5	63.5	71	53.9	0	1	45	0.00	30.303 
09:20	64.0	64.0	64.0	72	54.8	0	1	45	0.00	30.304 
09:25	64.7	64.7	64.7	69	54.3	0	1	45	0.00	30.302 
09:30	65.5	65.5	65.5	68	54.7	0	1	45	0.00	30.300 
09:35	66.4	66.4	66.4	67	55.1	0	1	45	0.00	30.299 
09:40	67.3	67.3	67.3	65	55.1	0	1	45	0.00	30.299 
09:45	68.1	68.1	68.1	62	54.6	0	1	45	0.00	30.297 
09:50	69.1	69.1	69.1	60	54.6	0	2	45	0.00	30.294 
09:55	69.8	69.8	69.8	61	55.7	0	1	45	0.00	30.293 
10:00	70.6	70.6	70.6	60	56.0	0	1	45	0.00	30.293 
10:05	70.9	70.9	70.9	60	56.3	0	2	45	0.00	30.293 
10:10	71.5	71.5	71.5	59	56.4	0	1	45	0.00	30.294 
10:15	71.8	71.8	71.8	58	56.2	0	1	45	0.00	30.294 
10:20	72.1	72.1	72.1	58	56.5	0	1	45	0.00	30.292 
10:25	72.3	72.3	72.3	57	56.2	0	1	45	0.00	30.291 
10:30	72.8	72.8	72.8	56	56.2	0	1	45	0.00	30.290 
10:35	73.7	73.7	73.7	54	56.0	0	1	45	0.00	30.290 
10:40	74.4	74.4	74.4	54	56.7	0	2	45	0.00	30.288 
10:45	74.7	74.7	74.7	53	56.4	0	1	45	0.00	30.287 
10:50	74.7	74.7	74.7	52	55.9	0	2	45	0.00	30.287 
10:55	74.9	74.9	74.9	52	56.1	0	1	45	0.00	30.286 
11:00	75.3	75.3	77.7	51	55.9	0	1	45	0.00	30.285 
11:05	76.0	76.0	78.1	51	56.5	0	1	45	0.00	30.286 
11:10	76.5	76.5	78.3	50	56.5	0	1	45	0.00	30.283 
11:15	76.8	76.8	78.5	51	57.3	0	1	45	0.00	30.282 
11:20	77.6	77.6	79.0	50	57.5	0	1	45	0.00	30.282 
11:25	77.9	77.9	79.0	46	55.4	0	1	45	0.00	30.279 
11:30	78.1	78.1	79.3	49	57.4	1	2	45	0.00	30.277 
11:35	78.3	78.3	79.3	47	56.4	0	1	45	0.00	30.276 
11:40	78.6	78.6	79.4	45	55.5	1	3	45	0.00	30.273 
11:45	78.8	78.8	79.6	47	56.8	0	1	45	0.00	30.272 
11:50	79.2	79.2	79.8	46	56.6	0	2	45	0.00	30.271 
11:55	79.6	79.6	80.2	47	57.6	0	1	45	0.00	30.270 
12:00	79.9	79.9	80.4	46	57.2	0	1	45	0.00	30.269 
12:05	80.1	80.1	80.2	42	54.9	0	1	45	0.00	30.269 
12:10	79.9	79.9	80.2	44	56.0	1	3	45	0.00	30.266 
12:15	79.6	79.6	79.9	43	55.1	0	2	45	0.00	30.263 
12:20	79.8	79.8	80.5	48	58.3	0	2	45	0.00	30.261 
12:25	80.1	80.1	80.4	45	56.8	0	2	45	0.00	30.259 
12:30	80.5	80.5	80.2	39	53.2	1	3	45	0.00	30.259 
12:35	80.5	80.5	80.3	40	53.9	1	2	45	0.00	30.258 
12:40	80.5	80.5	80.4	41	54.6	0	1	45	0.00	30.257 
12:45	80.7	80.7	80.6	42	55.4	0	1	45	0.00	30.256 
12:50	80.9	80.9	80.3	37	52.2	0	3	45	0.00	30.256 
12:55	81.2	81.2	80.4	36	51.7	0	2	45	0.00	30.253 
13:00	81.4	81.4	80.6	36	51.9	1	3	45	0.00	30.247 
13:05	81.2	81.2	80.5	37	52.4	0	2	45	0.00	30.244 
13:10	81.1	81.1	80.6	39	53.8	1	2	45	0.00	30.244 
13:15	80.7	80.7	80.2	38	52.7	1	3	45	0.00	30.242 
13:20	81.1	81.1	80.5	38	53.1	0	1	45	0.00	30.241 
13:25	81.4	81.4	80.9	39	54.0	0	1	45	0.00	30.239 
13:30	81.6	81.6	80.9	38	53.5	1	4	68	0.00	30.235 
13:35	81.6	81.6	80.6	35	51.3	1	3	68	0.00	30.233 
13:40	81.6	81.6	80.7	36	52.0	1	4	68	0.00	30.229 
13:45	81.8	81.8	81.0	37	53.0	0	1	68	0.00	30.227 
13:50	82.0	82.0	81.2	38	53.9	0	2	68	0.00	30.227 
13:55	82.2	82.2	81.3	37	53.3	1	3	315	0.00	30.227 
14:00	82.4	82.4	81.0	33	50.4	0	2	292	0.00	30.227 
14:05	82.8	82.8	81.3	33	50.7	0	1	292	0.00	30.225 
14:10	83.2	83.2	82.4	39	55.6	0	1	292	0.00	30.223 
14:15	83.0	83.0	81.6	34	51.7	0	1	292	0.00	30.219 
14:20	83.0	83.0	82.0	37	54.0	0	1	292	0.00	30.216 
14:25	83.0	83.0	81.5	33	50.9	0	1	292	0.00	30.215 
14:30	83.2	83.2	81.9	35	52.7	0	2	292	0.00	30.212 
14:35	82.8	82.8	81.7	36	53.1	1	4	68	0.00	30.211 
14:40	82.6	82.6	81.5	36	52.9	1	3	90	0.00	30.210 
14:45	82.2	82.2	81.1	35	51.8	1	4	90	0.00	30.211 
14:50	82.2	82.2	81.2	36	52.6	0	2	90	0.00	30.210 
14:55	82.2	82.2	81.0	34	51.0	0	2	90	0.00	30.210 
15:00	82.2	82.2	81.0	34	51.0	0	3	90	0.00	30.209 
15:05	82.4	82.4	81.2	35	52.0	0	2	90	0.00	30.209 
15:10	82.6	82.6	81.3	34	51.4	0	1	90	0.00	30.207 
15:15	82.8	82.8	81.2	32	49.9	0	2	90	0.00	30.205 
15:20	82.8	82.8	81.7	36	53.1	0	2	90	0.00	30.204 
15:25	83.0	83.0	81.7	35	52.5	0	3	90	0.00	30.202 
15:30	82.8	82.8	81.1	30	48.2	0	2	90	0.00	30.205 
15:35	82.8	82.8	81.2	31	49.0	0	1	90	0.00	30.202 
15:40	82.8	82.8	81.1	30	48.2	0	2	90	0.00	30.200 
15:45	82.6	82.6	80.8	29	47.1	0	1	90	0.00	30.197 
15:50	82.6	82.6	80.8	28	46.2	0	0	---	0.00	30.196 
15:55	82.6	82.6	81.0	31	48.9	0	1	90	0.00	30.197 
16:00	82.6	82.6	80.8	28	46.2	1	3	90	0.00	30.197 
16:05	82.6	82.6	80.8	28	46.2	0	2	90	0.00	30.197 
16:10	82.6	82.6	80.9	30	48.0	0	1	90	0.00	30.197 
16:15	82.6	82.6	81.4	35	52.1	0	2	90	0.00	30.198 
16:20	82.2	82.2	81.1	35	51.8	0	1	90	0.00	30.199 
16:25	82.0	82.0	81.0	36	52.4	0	1	68	0.00	30.199 
16:30	81.8	81.8	80.9	36	52.2	0	2	68	0.00	30.199 
16:35	81.8	81.8	81.3	40	55.1	0	1	68	0.00	30.198 
16:40	81.6	81.6	80.9	38	53.5	0	3	68	0.00	30.197 
16:45	81.2	81.2	80.6	38	53.1	0	1	68	0.00	30.196 
16:50	81.1	81.1	80.8	41	55.1	0	0	---	0.00	30.196 
16:55	80.7	80.7	80.6	42	55.4	0	1	68	0.00	30.196 
17:00	80.3	80.3	80.2	41	54.4	0	1	68	0.00	30.196 
17:05	80.1	80.1	80.2	42	54.9	0	0	---	0.00	30.199 
17:10	79.9	79.9	80.0	42	54.7	0	1	68	0.00	30.198 
17:15	79.8	79.8	80.1	44	55.9	0	0	---	0.00	30.198 
17:20	79.4	79.4	79.7	42	54.3	0	0	---	0.00	30.200 
17:25	79.2	79.2	79.6	43	54.7	0	1	68	0.00	30.200 
17:30	78.8	78.8	79.4	43	54.4	0	0	---	0.00	30.200 
17:35	78.6	78.6	79.4	46	56.1	0	0	---	0.00	30.200 
17:40	78.3	78.3	79.2	45	55.2	0	0	---	0.00	30.200 
17:45	78.1	78.1	79.1	46	55.6	0	0	---	0.00	30.202 
17:50	77.7	77.7	78.9	47	55.8	0	0	---	0.00	30.202 
17:55	77.4	77.4	78.7	47	55.6	0	0	---	0.00	30.202 
18:00	77.2	77.2	78.7	49	56.5	0	0	---	0.00	30.203 
18:05	76.8	76.8	78.5	50	56.7	0	0	---	0.00	30.203 
18:10	76.5	76.5	78.3	51	57.0	0	0	---	0.00	30.205 
18:15	76.0	76.0	78.1	50	56.0	0	0	---	0.00	30.208 
18:20	75.4	75.4	77.8	52	56.5	0	0	---	0.00	30.209 
18:25	74.9	74.9	74.9	52	56.1	0	0	---	0.00	30.211 
18:30	74.4	74.4	74.4	54	56.7	0	0	---	0.00	30.213 
18:35	73.9	73.9	73.9	55	56.7	0	0	---	0.00	30.213 
18:40	73.3	73.3	73.3	56	56.6	0	0	---	0.00	30.213 
18:45	72.8	72.8	72.8	56	56.2	0	0	---	0.00	30.212 
18:50	72.5	72.5	72.5	56	55.9	0	0	---	0.00	30.213 
18:55	71.8	71.8	71.8	58	56.2	0	0	---	0.00	30.216 
19:00	71.3	71.3	71.3	61	57.1	0	0	---	0.00	30.213 
19:05	70.8	70.8	70.8	62	57.1	0	0	---	0.00	30.211 
19:10	70.3	70.3	70.3	62	56.7	0	0	---	0.00	30.211 
19:15	69.9	69.9	69.9	62	56.3	0	0	---	0.00	30.212 
19:20	69.4	69.4	69.4	65	57.1	0	0	---	0.00	30.213 
19:25	68.9	68.9	68.9	66	57.1	0	0	---	0.00	30.216 
19:30	68.6	68.6	68.6	67	57.2	0	0	---	0.00	30.217 
19:35	68.3	68.3	68.3	67	56.9	0	0	---	0.00	30.218 
19:40	67.8	67.8	67.8	69	57.2	0	0	---	0.00	30.219 
19:45	67.3	67.3	67.3	71	57.6	0	0	---	0.00	30.221 
19:50	66.9	66.9	66.9	72	57.6	0	0	---	0.00	30.223 
19:55	66.6	66.6	66.6	72	57.3	0	0	---	0.00	30.225 
20:00	66.3	66.3	66.3	73	57.4	0	0	---	0.00	30.230 
20:05	66.1	66.1	66.1	73	57.2	0	0	---	0.00	30.224 
20:10	65.8	65.8	65.8	74	57.3	0	0	---	0.00	30.223 
20:15	65.5	65.5	65.5	75	57.4	0	0	---	0.00	30.223 
20:20	65.2	65.2	65.2	76	57.4	0	0	---	0.00	30.227 
20:25	64.8	64.8	64.8	77	57.4	0	0	---	0.00	30.229 
20:30	64.7	64.7	64.7	77	57.3	0	0	---	0.00	30.230 
20:35	64.3	64.3	64.3	78	57.3	0	0	---	0.00	30.231 
20:40	64.2	64.2	64.2	78	57.2	0	0	---	0.00	30.232 
20:45	63.9	63.9	63.9	79	57.3	0	0	---	0.00	30.233 
20:50	63.7	63.7	63.7	79	57.1	0	0	---	0.00	30.234 
20:55	63.5	63.5	63.5	80	57.2	0	0	---	0.00	30.234 
21:00	63.2	63.2	63.2	81	57.3	0	0	---	0.00	30.235 
21:05	62.9	62.9	62.9	81	57.0	0	0	---	0.00	30.229 
21:10	62.7	62.7	62.7	81	56.8	0	0	---	0.00	30.229 
21:15	62.6	62.6	62.6	81	56.7	0	0	---	0.00	30.229 
21:20	62.3	62.3	62.3	82	56.7	0	0	---	0.00	30.230 
21:25	62.1	62.1	62.1	83	56.9	0	0	---	0.00	30.231 
21:30	62.0	62.0	62.0	84	57.1	0	0	---	0.00	30.234 
21:35	61.8	61.8	61.8	84	56.9	0	0	---	0.00	30.237 
21:40	61.6	61.6	61.6	84	56.7	0	0	---	0.00	30.238 
21:45	61.5	61.5	61.5	85	56.9	0	0	---	0.00	30.240 
21:50	61.3	61.3	61.3	85	56.7	0	0	---	0.00	30.243 
21:55	61.2	61.2	61.2	86	57.0	0	0	---	0.00	30.243 
22:00	61.2	61.2	61.2	86	57.0	0	0	---	0.00	30.243 
22:05	61.0	61.0	61.0	87	57.1	0	0	---	0.00	30.241 
22:10	61.0	61.0	61.0	87	57.1	0	0	---	0.00	30.241 
22:15	60.9	60.9	60.9	88	57.3	0	0	---	0.00	30.242 
22:20	60.9	60.9	60.9	88	57.3	0	0	---	0.00	30.242 
22:25	60.9	60.9	60.9	88	57.3	0	0	---	0.00	30.241 
22:30	60.7	60.7	60.7	88	57.1	0	0	---	0.00	30.242 
22:35	60.5	60.5	60.5	88	56.9	0	0	---	0.00	30.242 
22:40	60.4	60.4	60.4	88	56.8	0	0	---	0.00	30.243 
22:45	60.4	60.4	60.4	87	56.5	0	0	---	0.00	30.244 
22:50	60.2	60.2	60.2	87	56.3	0	0	---	0.00	30.244 
22:55	60.2	60.2	60.2	86	56.0	0	0	---	0.00	30.244 
23:00	60.2	60.2	60.2	86	56.0	0	0	---	0.00	30.244 
23:05	60.1	60.1	60.1	85	55.6	0	0	---	0.00	30.239 
23:10	60.1	60.1	60.1	85	55.6	0	0	---	0.00	30.240 
23:15	59.9	59.9	59.9	85	55.4	0	0	---	0.00	30.240 
23:20	59.9	59.9	59.9	85	55.4	0	0	---	0.00	30.240 
23:25	59.6	59.6	59.6	85	55.1	0	0	---	0.00	30.240 
23:30	59.5	59.5	59.5	85	55.0	0	0	---	0.00	30.239 
23:35	59.3	59.3	59.3	85	54.8	0	0	---	0.00	30.238 
23:40	59.3	59.3	59.3	86	55.1	0	0	---	0.00	30.240 
23:45	59.2	59.2	59.2	86	55.0	0	0	---	0.00	30.240 
23:50	59.0	59.0	59.0	86	54.8	0	0	---	0.00	30.240 
23:55	58.7	58.7	58.7	86	54.5	0	0	---	0.00	30.240 

CoCoRaHS
IN-AL-39
A2 Web Hosting
Creative Commons License
GoDaddy
Look for:

loaded 2017-12-12 16:41:37 • last modified 2010-11-18 10:43:29
Privacy PolicyDisclaimer
• wx.awcolley.com is powered by PmWiki v.2002016 •
• all content (unless otherwise noted) © 2017 A W Colley